sensor_id;sensor_type;location;lat;lon;timestamp;temperature;humidity
57833;DHT22;43667;53.036;6.740;2023-04-03T00:00:07;2.10;99.90
57833;DHT22;43667;53.036;6.740;2023-04-03T00:02:34;2.10;99.90
57833;DHT22;43667;53.036;6.740;2023-04-03T00:04:59;2.10;99.90
57833;DHT22;43667;53.036;6.740;2023-04-03T00:07:25;2.00;99.90
57833;DHT22;43667;53.036;6.740;2023-04-03T00:09:51;2.00;99.90
57833;DHT22;43667;53.036;6.740;2023-04-03T00:12:17;2.00;99.90
57833;DHT22;43667;53.036;6.740;2023-04-03T00:14:42;2.00;99.90
57833;DHT22;43667;53.036;6.740;2023-04-03T00:17:08;2.00;99.90
57833;DHT22;43667;53.036;6.740;2023-04-03T00:19:33;1.90;99.90
57833;DHT22;43667;53.036;6.740;2023-04-03T00:21:59;1.90;99.90
57833;DHT22;43667;53.036;6.740;2023-04-03T00:24:25;1.80;99.90
57833;DHT22;43667;53.036;6.740;2023-04-03T00:26:50;1.80;99.90
57833;DHT22;43667;53.036;6.740;2023-04-03T00:29:16;1.80;99.90
57833;DHT22;43667;53.036;6.740;2023-04-03T00:31:41;1.80;99.90
57833;DHT22;43667;53.036;6.740;2023-04-03T00:34:07;1.80;99.90
57833;DHT22;43667;53.036;6.740;2023-04-03T00:36:33;1.70;99.90
57833;DHT22;43667;53.036;6.740;2023-04-03T00:38:58;1.70;99.90
57833;DHT22;43667;53.036;6.740;2023-04-03T00:41:24;1.70;99.90
57833;DHT22;43667;53.036;6.740;2023-04-03T00:43:50;1.60;99.90
57833;DHT22;43667;53.036;6.740;2023-04-03T00:46:16;1.60;99.90
57833;DHT22;43667;53.036;6.740;2023-04-03T00:48:46;1.60;99.90
57833;DHT22;43667;53.036;6.740;2023-04-03T00:51:16;1.60;99.90
57833;DHT22;43667;53.036;6.740;2023-04-03T00:53:49;1.50;99.90
57833;DHT22;43667;53.036;6.740;2023-04-03T00:56:18;1.50;99.90
57833;DHT22;43667;53.036;6.740;2023-04-03T00:58:50;1.50;99.90
57833;DHT22;43667;53.036;6.740;2023-04-03T01:01:21;1.40;99.90
57833;DHT22;43667;53.036;6.740;2023-04-03T01:03:48;1.40;99.90
57833;DHT22;43667;53.036;6.740;2023-04-03T01:06:16;1.40;99.90
57833;DHT22;43667;53.036;6.740;2023-04-03T01:08:42;1.40;99.90
57833;DHT22;43667;53.036;6.740;2023-04-03T01:11:08;1.40;99.90
57833;DHT22;43667;53.036;6.740;2023-04-03T01:13:34;1.30;99.90
57833;DHT22;43667;53.036;6.740;2023-04-03T01:16:04;1.30;99.90
57833;DHT22;43667;53.036;6.740;2023-04-03T01:18:31;1.30;99.90
57833;DHT22;43667;53.036;6.740;2023-04-03T01:23:51;1.30;99.90
57833;DHT22;43667;53.036;6.740;2023-04-03T01:26:18;1.20;99.90
57833;DHT22;43667;53.036;6.740;2023-04-03T01:28:45;1.20;99.90
57833;DHT22;43667;53.036;6.740;2023-04-03T01:33:58;1.20;99.90
57833;DHT22;43667;53.036;6.740;2023-04-03T01:36:26;1.20;99.90
57833;DHT22;43667;53.036;6.740;2023-04-03T01:38:53;1.20;99.90
57833;DHT22;43667;53.036;6.740;2023-04-03T01:41:19;1.10;99.90
57833;DHT22;43667;53.036;6.740;2023-04-03T01:43:47;1.10;99.90
57833;DHT22;43667;53.036;6.740;2023-04-03T01:46:13;1.10;99.90
57833;DHT22;43667;53.036;6.740;2023-04-03T01:48:39;1.10;99.90
57833;DHT22;43667;53.036;6.740;2023-04-03T01:51:05;1.10;99.90
57833;DHT22;43667;53.036;6.740;2023-04-03T01:53:31;1.00;99.90
57833;DHT22;43667;53.036;6.740;2023-04-03T01:55:56;1.00;99.90
57833;DHT22;43667;53.036;6.740;2023-04-03T01:58:22;1.00;99.90
57833;DHT22;43667;53.036;6.740;2023-04-03T02:00:47;1.00;99.90
57833;DHT22;43667;53.036;6.740;2023-04-03T02:03:13;1.00;99.90
57833;DHT22;43667;53.036;6.740;2023-04-03T02:05:40;0.90;99.90
57833;DHT22;43667;53.036;6.740;2023-04-03T02:08:05;0.90;99.90
57833;DHT22;43667;53.036;6.740;2023-04-03T02:10:31;0.90;99.90
57833;DHT22;43667;53.036;6.740;2023-04-03T02:12:57;0.90;99.90
57833;DHT22;43667;53.036;6.740;2023-04-03T02:15:23;0.80;99.90
57833;DHT22;43667;53.036;6.740;2023-04-03T02:17:48;0.80;99.90
57833;DHT22;43667;53.036;6.740;2023-04-03T02:20:14;0.80;99.90
57833;DHT22;43667;53.036;6.740;2023-04-03T02:22:40;0.80;99.90
57833;DHT22;43667;53.036;6.740;2023-04-03T02:25:06;0.80;99.90
57833;DHT22;43667;53.036;6.740;2023-04-03T02:27:31;0.70;99.90
57833;DHT22;43667;53.036;6.740;2023-04-03T02:29:57;0.70;99.90
57833;DHT22;43667;53.036;6.740;2023-04-03T02:32:23;0.70;99.90
57833;DHT22;43667;53.036;6.740;2023-04-03T02:34:48;0.70;99.90
57833;DHT22;43667;53.036;6.740;2023-04-03T02:37:14;0.60;99.90
57833;DHT22;43667;53.036;6.740;2023-04-03T02:39:40;0.60;99.90
57833;DHT22;43667;53.036;6.740;2023-04-03T02:42:06;0.50;99.90
57833;DHT22;43667;53.036;6.740;2023-04-03T02:44:32;0.50;99.90
57833;DHT22;43667;53.036;6.740;2023-04-03T02:46:58;0.50;99.90
57833;DHT22;43667;53.036;6.740;2023-04-03T02:49:23;0.40;99.90
57833;DHT22;43667;53.036;6.740;2023-04-03T02:51:49;0.30;99.90
57833;DHT22;43667;53.036;6.740;2023-04-03T02:54:16;0.30;99.90
57833;DHT22;43667;53.036;6.740;2023-04-03T02:56:42;0.30;99.90
57833;DHT22;43667;53.036;6.740;2023-04-03T02:59:07;0.20;99.90
57833;DHT22;43667;53.036;6.740;2023-04-03T03:01:33;0.20;99.90
57833;DHT22;43667;53.036;6.740;2023-04-03T03:03:59;0.20;99.90
57833;DHT22;43667;53.036;6.740;2023-04-03T03:06:25;0.10;99.90
57833;DHT22;43667;53.036;6.740;2023-04-03T03:08:51;0.10;99.90
57833;DHT22;43667;53.036;6.740;2023-04-03T03:11:16;0.00;99.90
57833;DHT22;43667;53.036;6.740;2023-04-03T03:13:42;0.00;99.90
57833;DHT22;43667;53.036;6.740;2023-04-03T03:16:08;0.00;99.90
57833;DHT22;43667;53.036;6.740;2023-04-03T03:18:34;-0.10;99.90
57833;DHT22;43667;53.036;6.740;2023-04-03T03:21:00;-0.10;99.90
57833;DHT22;43667;53.036;6.740;2023-04-03T03:23:28;-0.20;99.90
57833;DHT22;43667;53.036;6.740;2023-04-03T03:25:59;-0.20;99.90
57833;DHT22;43667;53.036;6.740;2023-04-03T03:28:25;-0.20;99.90
57833;DHT22;43667;53.036;6.740;2023-04-03T03:30:50;-0.20;99.90
57833;DHT22;43667;53.036;6.740;2023-04-03T03:33:16;-0.30;99.90
57833;DHT22;43667;53.036;6.740;2023-04-03T03:35:42;-0.30;99.90
57833;DHT22;43667;53.036;6.740;2023-04-03T03:38:08;-0.30;99.90
57833;DHT22;43667;53.036;6.740;2023-04-03T03:40:34;-0.40;99.90
57833;DHT22;43667;53.036;6.740;2023-04-03T03:42:59;-0.40;99.90
57833;DHT22;43667;53.036;6.740;2023-04-03T03:45:25;-0.40;99.90
57833;DHT22;43667;53.036;6.740;2023-04-03T03:47:51;-0.40;99.90
57833;DHT22;43667;53.036;6.740;2023-04-03T03:50:16;-0.40;99.90
57833;DHT22;43667;53.036;6.740;2023-04-03T03:52:42;-0.40;99.90
57833;DHT22;43667;53.036;6.740;2023-04-03T03:55:07;-0.40;99.90
57833;DHT22;43667;53.036;6.740;2023-04-03T03:57:33;-0.40;99.90
57833;DHT22;43667;53.036;6.740;2023-04-03T03:59:59;-0.40;99.90
57833;DHT22;43667;53.036;6.740;2023-04-03T04:02:24;-0.30;99.90
57833;DHT22;43667;53.036;6.740;2023-04-03T04:04:50;-0.40;99.90
57833;DHT22;43667;53.036;6.740;2023-04-03T04:07:16;-0.40;99.90
57833;DHT22;43667;53.036;6.740;2023-04-03T04:09:41;-0.30;99.90
57833;DHT22;43667;53.036;6.740;2023-04-03T04:12:07;-0.30;99.90
57833;DHT22;43667;53.036;6.740;2023-04-03T04:14:32;-0.30;99.90
57833;DHT22;43667;53.036;6.740;2023-04-03T04:16:58;-0.30;99.90
57833;DHT22;43667;53.036;6.740;2023-04-03T04:19:23;-0.40;99.90
57833;DHT22;43667;53.036;6.740;2023-04-03T04:21:49;-0.30;99.90
57833;DHT22;43667;53.036;6.740;2023-04-03T04:24:15;-0.30;99.90
57833;DHT22;43667;53.036;6.740;2023-04-03T04:26:41;-0.40;99.90
57833;DHT22;43667;53.036;6.740;2023-04-03T04:29:08;-0.40;99.90
57833;DHT22;43667;53.036;6.740;2023-04-03T04:31:33;-0.40;99.90
57833;DHT22;43667;53.036;6.740;2023-04-03T04:33:59;-0.40;99.90
57833;DHT22;43667;53.036;6.740;2023-04-03T04:36:25;-0.40;99.90
57833;DHT22;43667;53.036;6.740;2023-04-03T04:38:51;-0.40;99.90
57833;DHT22;43667;53.036;6.740;2023-04-03T04:41:22;-0.50;99.90
57833;DHT22;43667;53.036;6.740;2023-04-03T04:43:52;-0.50;99.90
57833;DHT22;43667;53.036;6.740;2023-04-03T04:46:18;-0.50;99.90
57833;DHT22;43667;53.036;6.740;2023-04-03T04:48:44;-0.50;99.90
57833;DHT22;43667;53.036;6.740;2023-04-03T04:51:09;-0.50;99.90
57833;DHT22;43667;53.036;6.740;2023-04-03T04:53:35;-0.50;99.90
57833;DHT22;43667;53.036;6.740;2023-04-03T04:56:01;-0.50;99.90
57833;DHT22;43667;53.036;6.740;2023-04-03T04:58:27;-0.50;99.90
57833;DHT22;43667;53.036;6.740;2023-04-03T05:03:25;-0.60;99.90
57833;DHT22;43667;53.036;6.740;2023-04-03T05:05:51;-0.60;99.90
57833;DHT22;43667;53.036;6.740;2023-04-03T05:08:16;-0.60;99.90
57833;DHT22;43667;53.036;6.740;2023-04-03T05:10:42;-0.60;99.90
57833;DHT22;43667;53.036;6.740;2023-04-03T05:13:08;-0.60;99.90
57833;DHT22;43667;53.036;6.740;2023-04-03T05:15:33;-0.60;99.90
57833;DHT22;43667;53.036;6.740;2023-04-03T05:17:59;-0.60;99.90
57833;DHT22;43667;53.036;6.740;2023-04-03T05:20:24;-0.60;99.90
57833;DHT22;43667;53.036;6.740;2023-04-03T05:22:50;-0.60;99.90
57833;DHT22;43667;53.036;6.740;2023-04-03T05:25:16;-0.60;99.90
57833;DHT22;43667;53.036;6.740;2023-04-03T05:27:41;-0.60;99.90
57833;DHT22;43667;53.036;6.740;2023-04-03T05:30:08;-0.60;99.90
57833;DHT22;43667;53.036;6.740;2023-04-03T05:32:33;-0.60;99.90
57833;DHT22;43667;53.036;6.740;2023-04-03T05:34:59;-0.50;99.90
57833;DHT22;43667;53.036;6.740;2023-04-03T05:37:25;-0.50;99.90
57833;DHT22;43667;53.036;6.740;2023-04-03T05:39:50;-0.40;99.90
57833;DHT22;43667;53.036;6.740;2023-04-03T05:42:16;-0.40;99.90
57833;DHT22;43667;53.036;6.740;2023-04-03T05:44:42;-0.40;99.90
57833;DHT22;43667;53.036;6.740;2023-04-03T05:47:08;-0.40;99.90
57833;DHT22;43667;53.036;6.740;2023-04-03T05:49:34;-0.40;99.90
57833;DHT22;43667;53.036;6.740;2023-04-03T05:52:00;-0.40;99.90
57833;DHT22;43667;53.036;6.740;2023-04-03T05:54:28;-0.30;99.90
57833;DHT22;43667;53.036;6.740;2023-04-03T05:56:54;-0.30;99.90
57833;DHT22;43667;53.036;6.740;2023-04-03T05:59:20;-0.30;99.90
57833;DHT22;43667;53.036;6.740;2023-04-03T06:01:46;-0.20;99.90
57833;DHT22;43667;53.036;6.740;2023-04-03T06:04:13;-0.20;99.90
57833;DHT22;43667;53.036;6.740;2023-04-03T06:06:44;-0.10;99.90
57833;DHT22;43667;53.036;6.740;2023-04-03T06:09:10;-0.10;99.90
57833;DHT22;43667;53.036;6.740;2023-04-03T06:11:36;-0.10;99.90
57833;DHT22;43667;53.036;6.740;2023-04-03T06:14:02;0.00;99.90
57833;DHT22;43667;53.036;6.740;2023-04-03T06:16:28;0.00;99.90
57833;DHT22;43667;53.036;6.740;2023-04-03T06:18:54;0.10;99.90
57833;DHT22;43667;53.036;6.740;2023-04-03T06:21:20;0.10;99.90
57833;DHT22;43667;53.036;6.740;2023-04-03T06:23:46;0.20;99.90
57833;DHT22;43667;53.036;6.740;2023-04-03T06:26:11;0.30;99.90
57833;DHT22;43667;53.036;6.740;2023-04-03T06:28:37;0.40;99.90
57833;DHT22;43667;53.036;6.740;2023-04-03T06:31:02;0.50;99.90
57833;DHT22;43667;53.036;6.740;2023-04-03T06:33:28;0.60;99.90
57833;DHT22;43667;53.036;6.740;2023-04-03T06:35:58;0.70;99.90
57833;DHT22;43667;53.036;6.740;2023-04-03T06:38:24;0.90;99.90
57833;DHT22;43667;53.036;6.740;2023-04-03T06:40:50;1.00;99.90
57833;DHT22;43667;53.036;6.740;2023-04-03T06:43:17;1.10;99.90
57833;DHT22;43667;53.036;6.740;2023-04-03T06:45:42;1.20;99.90
57833;DHT22;43667;53.036;6.740;2023-04-03T06:48:08;1.30;99.90
57833;DHT22;43667;53.036;6.740;2023-04-03T06:50:34;1.50;99.90
57833;DHT22;43667;53.036;6.740;2023-04-03T06:52:59;1.60;99.90
57833;DHT22;43667;53.036;6.740;2023-04-03T06:55:26;1.70;99.90
57833;DHT22;43667;53.036;6.740;2023-04-03T06:57:52;1.90;99.90
57833;DHT22;43667;53.036;6.740;2023-04-03T07:00:18;2.00;99.90
57833;DHT22;43667;53.036;6.740;2023-04-03T07:02:43;2.10;99.90
57833;DHT22;43667;53.036;6.740;2023-04-03T07:05:09;2.30;99.90
57833;DHT22;43667;53.036;6.740;2023-04-03T07:07:35;2.40;99.90
57833;DHT22;43667;53.036;6.740;2023-04-03T07:10:01;2.60;99.90
57833;DHT22;43667;53.036;6.740;2023-04-03T07:12:26;2.70;99.90
57833;DHT22;43667;53.036;6.740;2023-04-03T07:14:52;2.80;99.90
57833;DHT22;43667;53.036;6.740;2023-04-03T07:17:18;3.00;99.90
57833;DHT22;43667;53.036;6.740;2023-04-03T07:19:43;3.10;99.90
57833;DHT22;43667;53.036;6.740;2023-04-03T07:22:09;3.20;99.90
57833;DHT22;43667;53.036;6.740;2023-04-03T07:24:36;3.40;99.90
57833;DHT22;43667;53.036;6.740;2023-04-03T07:27:02;3.40;99.90
57833;DHT22;43667;53.036;6.740;2023-04-03T07:29:28;3.50;99.90
57833;DHT22;43667;53.036;6.740;2023-04-03T07:31:54;3.60;99.90
57833;DHT22;43667;53.036;6.740;2023-04-03T07:34:21;3.80;99.90
57833;DHT22;43667;53.036;6.740;2023-04-03T07:36:46;3.90;99.90
57833;DHT22;43667;53.036;6.740;2023-04-03T07:39:12;4.00;99.90
57833;DHT22;43667;53.036;6.740;2023-04-03T07:41:38;4.10;99.90
57833;DHT22;43667;53.036;6.740;2023-04-03T07:44:03;4.20;99.90
57833;DHT22;43667;53.036;6.740;2023-04-03T07:46:31;4.30;99.90
57833;DHT22;43667;53.036;6.740;2023-04-03T07:48:56;4.50;99.90
57833;DHT22;43667;53.036;6.740;2023-04-03T07:51:22;4.60;99.90
57833;DHT22;43667;53.036;6.740;2023-04-03T07:53:49;4.70;99.90
57833;DHT22;43667;53.036;6.740;2023-04-03T07:56:16;4.80;99.90
57833;DHT22;43667;53.036;6.740;2023-04-03T07:58:42;4.90;99.90
57833;DHT22;43667;53.036;6.740;2023-04-03T08:01:08;5.00;99.90
57833;DHT22;43667;53.036;6.740;2023-04-03T08:03:34;5.10;99.90
57833;DHT22;43667;53.036;6.740;2023-04-03T08:06:03;5.20;99.90
57833;DHT22;43667;53.036;6.740;2023-04-03T08:08:29;5.30;99.90
57833;DHT22;43667;53.036;6.740;2023-04-03T08:10:57;5.50;99.90
57833;DHT22;43667;53.036;6.740;2023-04-03T08:13:23;5.70;99.90
57833;DHT22;43667;53.036;6.740;2023-04-03T08:15:49;5.70;99.90
57833;DHT22;43667;53.036;6.740;2023-04-03T08:18:15;5.80;99.90
57833;DHT22;43667;53.036;6.740;2023-04-03T08:20:41;5.80;99.90
57833;DHT22;43667;53.036;6.740;2023-04-03T08:23:08;5.90;99.90
57833;DHT22;43667;53.036;6.740;2023-04-03T08:25:41;6.00;99.90
57833;DHT22;43667;53.036;6.740;2023-04-03T08:28:07;6.10;99.90
57833;DHT22;43667;53.036;6.740;2023-04-03T08:30:33;6.10;99.90
57833;DHT22;43667;53.036;6.740;2023-04-03T08:33:01;6.30;99.90
57833;DHT22;43667;53.036;6.740;2023-04-03T08:35:27;6.40;99.90
57833;DHT22;43667;53.036;6.740;2023-04-03T08:37:52;6.60;99.90
57833;DHT22;43667;53.036;6.740;2023-04-03T08:40:18;6.80;99.90
57833;DHT22;43667;53.036;6.740;2023-04-03T08:45:50;7.10;93.40
57833;DHT22;43667;53.036;6.740;2023-04-03T08:48:27;7.20;91.00
57833;DHT22;43667;53.036;6.740;2023-04-03T08:51:00;7.20;95.40
57833;DHT22;43667;53.036;6.740;2023-04-03T08:53:30;7.30;93.80
57833;DHT22;43667;53.036;6.740;2023-04-03T08:55:58;7.40;92.00
57833;DHT22;43667;53.036;6.740;2023-04-03T08:58:29;7.70;90.70
57833;DHT22;43667;53.036;6.740;2023-04-03T09:01:02;7.70;80.40
57833;DHT22;43667;53.036;6.740;2023-04-03T09:03:40;7.80;80.80
57833;DHT22;43667;53.036;6.740;2023-04-03T09:08:45;8.10;85.30
57833;DHT22;43667;53.036;6.740;2023-04-03T09:11:35;8.30;79.70
57833;DHT22;43667;53.036;6.740;2023-04-03T09:14:24;8.40;71.60
57833;DHT22;43667;53.036;6.740;2023-04-03T09:16:55;8.40;70.90
57833;DHT22;43667;53.036;6.740;2023-04-03T09:22:25;8.50;69.00
57833;DHT22;43667;53.036;6.740;2023-04-03T09:24:55;8.70;69.90
57833;DHT22;43667;53.036;6.740;2023-04-03T09:27:22;9.00;69.00
57833;DHT22;43667;53.036;6.740;2023-04-03T09:29:53;9.10;65.80
57833;DHT22;43667;53.036;6.740;2023-04-03T09:32:30;9.10;64.40
57833;DHT22;43667;53.036;6.740;2023-04-03T09:35:00;9.00;62.40
57833;DHT22;43667;53.036;6.740;2023-04-03T09:37:41;9.00;64.80
57833;DHT22;43667;53.036;6.740;2023-04-03T09:42:59;9.30;64.30
57833;DHT22;43667;53.036;6.740;2023-04-03T09:45:35;9.30;63.70
57833;DHT22;43667;53.036;6.740;2023-04-03T09:55:52;10.00;57.90
57833;DHT22;43667;53.036;6.740;2023-04-03T10:00:56;10.30;58.00
57833;DHT22;43667;53.036;6.740;2023-04-03T10:03:31;10.30;56.70
57833;DHT22;43667;53.036;6.740;2023-04-03T10:05:57;10.30;56.70
57833;DHT22;43667;53.036;6.740;2023-04-03T10:08:27;10.30;57.50
57833;DHT22;43667;53.036;6.740;2023-04-03T10:11:17;10.40;55.90
57833;DHT22;43667;53.036;6.740;2023-04-03T10:13:55;10.30;51.20
57833;DHT22;43667;53.036;6.740;2023-04-03T10:16:28;10.30;53.20
57833;DHT22;43667;53.036;6.740;2023-04-03T10:19:11;10.30;52.80
57833;DHT22;43667;53.036;6.740;2023-04-03T10:21:54;10.30;50.60
57833;DHT22;43667;53.036;6.740;2023-04-03T10:26:56;9.90;51.20
57833;DHT22;43667;53.036;6.740;2023-04-03T10:29:55;10.10;52.90
57833;DHT22;43667;53.036;6.740;2023-04-03T10:34:53;10.20;51.80
57833;DHT22;43667;53.036;6.740;2023-04-03T10:37:26;10.30;52.50
57833;DHT22;43667;53.036;6.740;2023-04-03T10:40:15;10.30;51.50
57833;DHT22;43667;53.036;6.740;2023-04-03T10:43:02;10.00;51.00
57833;DHT22;43667;53.036;6.740;2023-04-03T10:45:53;10.10;48.80
57833;DHT22;43667;53.036;6.740;2023-04-03T10:48:38;10.20;50.40
57833;DHT22;43667;53.036;6.740;2023-04-03T10:51:08;10.40;49.00
57833;DHT22;43667;53.036;6.740;2023-04-03T10:58:57;10.80;50.50
57833;DHT22;43667;53.036;6.740;2023-04-03T11:01:29;11.10;50.40
57833;DHT22;43667;53.036;6.740;2023-04-03T11:04:02;11.10;50.30
57833;DHT22;43667;53.036;6.740;2023-04-03T11:06:45;11.00;49.20
57833;DHT22;43667;53.036;6.740;2023-04-03T11:11:45;10.70;48.60
57833;DHT22;43667;53.036;6.740;2023-04-03T11:14:24;10.50;48.10
57833;DHT22;43667;53.036;6.740;2023-04-03T11:17:30;10.60;48.50
57833;DHT22;43667;53.036;6.740;2023-04-03T11:22:42;10.40;48.70
57833;DHT22;43667;53.036;6.740;2023-04-03T11:30:39;11.10;49.10
57833;DHT22;43667;53.036;6.740;2023-04-03T11:36:18;11.00;47.00
57833;DHT22;43667;53.036;6.740;2023-04-03T11:38:46;11.00;48.80
57833;DHT22;43667;53.036;6.740;2023-04-03T11:41:13;11.10;49.10
57833;DHT22;43667;53.036;6.740;2023-04-03T11:46:57;11.30;48.30
57833;DHT22;43667;53.036;6.740;2023-04-03T11:49:58;11.60;47.90
57833;DHT22;43667;53.036;6.740;2023-04-03T12:16:32;11.00;46.80
57833;DHT22;43667;53.036;6.740;2023-04-03T12:26:48;11.60;47.20
57833;DHT22;43667;53.036;6.740;2023-04-03T12:29:23;11.80;47.90
57833;DHT22;43667;53.036;6.740;2023-04-03T12:40:31;12.00;46.10
57833;DHT22;43667;53.036;6.740;2023-04-03T12:45:45;11.80;46.20
57833;DHT22;43667;53.036;6.740;2023-04-03T12:48:17;11.70;48.50
57833;DHT22;43667;53.036;6.740;2023-04-03T12:50:46;11.70;47.90
57833;DHT22;43667;53.036;6.740;2023-04-03T12:53:18;11.60;47.60
57833;DHT22;43667;53.036;6.740;2023-04-03T12:55:45;11.60;47.70
57833;DHT22;43667;53.036;6.740;2023-04-03T12:58:27;11.40;48.40
57833;DHT22;43667;53.036;6.740;2023-04-03T13:01:14;11.30;47.50
57833;DHT22;43667;53.036;6.740;2023-04-03T13:03:43;11.20;47.90
57833;DHT22;43667;53.036;6.740;2023-04-03T13:06:39;11.30;48.80
57833;DHT22;43667;53.036;6.740;2023-04-03T13:09:14;11.40;45.60
57833;DHT22;43667;53.036;6.740;2023-04-03T13:11:44;11.50;47.80
57833;DHT22;43667;53.036;6.740;2023-04-03T13:14:22;11.60;46.90
57833;DHT22;43667;53.036;6.740;2023-04-03T13:17:09;11.70;46.60
57833;DHT22;43667;53.036;6.740;2023-04-03T13:19:35;11.70;47.30
57833;DHT22;43667;53.036;6.740;2023-04-03T13:22:06;11.60;48.00
57833;DHT22;43667;53.036;6.740;2023-04-03T13:24:36;11.50;47.50
57833;DHT22;43667;53.036;6.740;2023-04-03T13:27:03;11.40;48.70
57833;DHT22;43667;53.036;6.740;2023-04-03T13:29:35;11.50;49.60
57833;DHT22;43667;53.036;6.740;2023-04-03T13:32:03;11.70;49.30
57833;DHT22;43667;53.036;6.740;2023-04-03T13:34:37;11.90;49.30
57833;DHT22;43667;53.036;6.740;2023-04-03T13:37:04;11.80;49.20
57833;DHT22;43667;53.036;6.740;2023-04-03T13:39:33;11.90;47.70
57833;DHT22;43667;53.036;6.740;2023-04-03T13:42:01;11.90;47.80
57833;DHT22;43667;53.036;6.740;2023-04-03T13:44:35;12.10;48.20
57833;DHT22;43667;53.036;6.740;2023-04-03T13:49:39;12.00;47.20
57833;DHT22;43667;53.036;6.740;2023-04-03T13:54:52;11.80;45.50
57833;DHT22;43667;53.036;6.740;2023-04-03T13:57:18;11.70;46.80
57833;DHT22;43667;53.036;6.740;2023-04-03T13:59:44;11.60;47.10
57833;DHT22;43667;53.036;6.740;2023-04-03T14:02:38;11.70;46.50
57833;DHT22;43667;53.036;6.740;2023-04-03T14:05:01;11.70;46.90
57833;DHT22;43667;53.036;6.740;2023-04-03T14:07:30;11.50;46.60
57833;DHT22;43667;53.036;6.740;2023-04-03T14:09:56;11.40;47.40
57833;DHT22;43667;53.036;6.740;2023-04-03T14:12:33;11.50;47.80
57833;DHT22;43667;53.036;6.740;2023-04-03T14:15:26;11.70;48.20
57833;DHT22;43667;53.036;6.740;2023-04-03T14:17:50;11.80;46.40
57833;DHT22;43667;53.036;6.740;2023-04-03T14:20:19;11.60;45.80
57833;DHT22;43667;53.036;6.740;2023-04-03T14:22:45;11.50;46.70
57833;DHT22;43667;53.036;6.740;2023-04-03T14:25:10;11.40;46.50
57833;DHT22;43667;53.036;6.740;2023-04-03T14:27:39;11.40;46.90
57833;DHT22;43667;53.036;6.740;2023-04-03T14:30:12;11.40;46.40
57833;DHT22;43667;53.036;6.740;2023-04-03T14:32:39;11.40;44.80
57833;DHT22;43667;53.036;6.740;2023-04-03T14:35:05;11.40;45.60
57833;DHT22;43667;53.036;6.740;2023-04-03T14:37:32;11.30;45.80
57833;DHT22;43667;53.036;6.740;2023-04-03T14:39:59;11.20;46.40
57833;DHT22;43667;53.036;6.740;2023-04-03T14:42:29;11.00;46.40
57833;DHT22;43667;53.036;6.740;2023-04-03T14:44:56;11.10;47.30
57833;DHT22;43667;53.036;6.740;2023-04-03T14:47:28;11.20;47.00
57833;DHT22;43667;53.036;6.740;2023-04-03T14:49:54;11.30;47.60
57833;DHT22;43667;53.036;6.740;2023-04-03T14:52:27;11.50;48.50
57833;DHT22;43667;53.036;6.740;2023-04-03T14:54:54;11.50;47.00
57833;DHT22;43667;53.036;6.740;2023-04-03T14:57:22;11.50;48.50
57833;DHT22;43667;53.036;6.740;2023-04-03T14:59:49;11.50;48.80
57833;DHT22;43667;53.036;6.740;2023-04-03T15:02:36;11.50;48.10
57833;DHT22;43667;53.036;6.740;2023-04-03T15:05:05;11.50;46.40
57833;DHT22;43667;53.036;6.740;2023-04-03T15:07:37;11.40;47.80
57833;DHT22;43667;53.036;6.740;2023-04-03T15:12:39;11.40;47.20
57833;DHT22;43667;53.036;6.740;2023-04-03T15:15:06;11.50;48.80
57833;DHT22;43667;53.036;6.740;2023-04-03T15:17:32;11.70;48.80
57833;DHT22;43667;53.036;6.740;2023-04-03T15:19:59;11.90;47.80
57833;DHT22;43667;53.036;6.740;2023-04-03T15:22:25;12.00;46.50
57833;DHT22;43667;53.036;6.740;2023-04-03T15:24:50;12.30;46.40
57833;DHT22;43667;53.036;6.740;2023-04-03T15:27:19;12.50;45.00
57833;DHT22;43667;53.036;6.740;2023-04-03T15:29:45;12.70;46.10
57833;DHT22;43667;53.036;6.740;2023-04-03T15:32:11;13.00;45.70
57833;DHT22;43667;53.036;6.740;2023-04-03T15:34:38;13.10;46.50
57833;DHT22;43667;53.036;6.740;2023-04-03T15:37:04;13.20;45.10
57833;DHT22;43667;53.036;6.740;2023-04-03T15:39:30;13.50;45.50
57833;DHT22;43667;53.036;6.740;2023-04-03T15:41:56;13.40;44.20
57833;DHT22;43667;53.036;6.740;2023-04-03T15:44:25;13.40;45.00
57833;DHT22;43667;53.036;6.740;2023-04-03T15:46:50;13.60;43.80
57833;DHT22;43667;53.036;6.740;2023-04-03T15:49:17;13.80;44.40
57833;DHT22;43667;53.036;6.740;2023-04-03T15:51:43;13.80;44.10
57833;DHT22;43667;53.036;6.740;2023-04-03T15:54:09;13.80;44.30
57833;DHT22;43667;53.036;6.740;2023-04-03T15:56:35;13.80;44.10
57833;DHT22;43667;53.036;6.740;2023-04-03T15:59:00;13.90;43.00
57833;DHT22;43667;53.036;6.740;2023-04-03T16:01:26;13.90;43.20
57833;DHT22;43667;53.036;6.740;2023-04-03T16:03:52;13.90;44.50
57833;DHT22;43667;53.036;6.740;2023-04-03T16:06:18;13.70;43.60
57833;DHT22;43667;53.036;6.740;2023-04-03T16:08:44;13.80;43.00
57833;DHT22;43667;53.036;6.740;2023-04-03T16:11:10;13.80;43.50
57833;DHT22;43667;53.036;6.740;2023-04-03T16:13:35;13.90;43.90
57833;DHT22;43667;53.036;6.740;2023-04-03T16:16:01;13.80;44.50
57833;DHT22;43667;53.036;6.740;2023-04-03T16:18:28;13.70;43.80
57833;DHT22;43667;53.036;6.740;2023-04-03T16:20:54;13.80;44.80
57833;DHT22;43667;53.036;6.740;2023-04-03T16:23:20;13.30;43.80
57833;DHT22;43667;53.036;6.740;2023-04-03T16:25:46;12.80;44.20
57833;DHT22;43667;53.036;6.740;2023-04-03T16:28:16;12.30;44.10
57833;DHT22;43667;53.036;6.740;2023-04-03T16:30:43;11.80;44.60
57833;DHT22;43667;53.036;6.740;2023-04-03T16:33:10;11.50;45.70
57833;DHT22;43667;53.036;6.740;2023-04-03T16:35:36;11.10;46.50
57833;DHT22;43667;53.036;6.740;2023-04-03T16:38:02;10.80;47.00
57833;DHT22;43667;53.036;6.740;2023-04-03T16:40:28;10.50;48.30
57833;DHT22;43667;53.036;6.740;2023-04-03T16:42:53;10.30;48.60
57833;DHT22;43667;53.036;6.740;2023-04-03T16:45:19;10.10;49.30
57833;DHT22;43667;53.036;6.740;2023-04-03T16:47:45;10.00;50.00
57833;DHT22;43667;53.036;6.740;2023-04-03T16:50:10;9.70;49.40
57833;DHT22;43667;53.036;6.740;2023-04-03T16:52:36;9.50;49.10
57833;DHT22;43667;53.036;6.740;2023-04-03T16:55:02;9.30;49.90
57833;DHT22;43667;53.036;6.740;2023-04-03T16:57:28;9.10;49.90
57833;DHT22;43667;53.036;6.740;2023-04-03T16:59:54;8.90;50.60
57833;DHT22;43667;53.036;6.740;2023-04-03T17:02:20;8.80;51.90
57833;DHT22;43667;53.036;6.740;2023-04-03T17:04:47;8.70;51.00
57833;DHT22;43667;53.036;6.740;2023-04-03T17:07:12;8.60;51.10
57833;DHT22;43667;53.036;6.740;2023-04-03T17:09:38;8.60;51.70
57833;DHT22;43667;53.036;6.740;2023-04-03T17:12:04;8.50;52.70
57833;DHT22;43667;53.036;6.740;2023-04-03T17:14:29;8.40;52.90
57833;DHT22;43667;53.036;6.740;2023-04-03T17:16:55;8.30;53.40
57833;DHT22;43667;53.036;6.740;2023-04-03T17:19:21;8.20;53.10
57833;DHT22;43667;53.036;6.740;2023-04-03T17:21:48;8.10;53.70
57833;DHT22;43667;53.036;6.740;2023-04-03T17:24:14;8.00;53.80
57833;DHT22;43667;53.036;6.740;2023-04-03T17:26:40;8.00;54.60
57833;DHT22;43667;53.036;6.740;2023-04-03T17:29:06;8.00;55.30
57833;DHT22;43667;53.036;6.740;2023-04-03T17:31:32;7.90;55.00